createdAt,value
2023-04-07T00:00:49.838Z,94.62
2023-04-07T00:01:49.888Z,95.03
2023-04-07T00:02:49.902Z,94.88
2023-04-07T00:03:49.916Z,94.72
2023-04-07T00:04:49.832Z,95.09
2023-04-07T00:05:49.773Z,94.88
2023-04-07T00:06:49.760Z,94.16
2023-04-07T00:07:56.441Z,94.58
2023-04-07T00:08:51.740Z,94.26
2023-04-07T00:09:49.722Z,94.37
2023-04-07T00:10:49.712Z,94.06
2023-04-07T00:11:49.700Z,94.37
2023-04-07T00:12:49.727Z,94.47
2023-04-07T00:13:49.683Z,94.16
2023-04-07T00:14:49.685Z,94.26
2023-04-07T00:15:49.692Z,94.58
2023-04-07T00:16:49.630Z,94.58
2023-04-07T00:17:49.661Z,94.68
2023-04-07T00:18:49.608Z,94.47
2023-04-07T00:19:49.598Z,94.37
2023-04-07T00:20:49.585Z,94.51
2023-04-07T00:21:49.570Z,94.41
2023-04-07T00:22:49.562Z,94.41
2023-04-07T00:23:49.541Z,94.62
2023-04-07T00:24:49.530Z,94.72
2023-04-07T00:25:49.529Z,94.72
2023-04-07T00:26:49.504Z,94.83
2023-04-07T00:27:49.496Z,94.83
2023-04-07T00:28:49.480Z,94.83
2023-04-07T00:29:49.464Z,94.97
2023-04-07T00:30:49.491Z,95.03
2023-04-07T00:31:49.438Z,94.97
2023-04-07T00:32:49.484Z,95.38
2023-04-07T00:33:49.418Z,95.34
2023-04-07T00:34:49.398Z,95.34
2023-04-07T00:35:49.467Z,95.23
2023-04-07T00:36:49.375Z,95.23
2023-04-07T00:37:49.367Z,95.23
2023-04-07T00:38:49.350Z,95.17
2023-04-07T00:39:49.340Z,95.17
2023-04-07T00:40:49.326Z,95.23
2023-04-07T00:41:49.313Z,95.08
2023-04-07T00:42:49.296Z,95.55
2023-04-07T00:43:49.281Z,95.44
2023-04-07T00:44:49.272Z,95.23
2023-04-07T00:45:49.256Z,94.92
2023-04-07T00:46:49.312Z,94.92
2023-04-07T00:47:49.263Z,94.92
2023-04-07T00:48:49.220Z,95.03
2023-04-07T00:49:49.213Z,94.62
2023-04-07T00:50:49.194Z,94.72
2023-04-07T00:51:49.182Z,94.92
2023-04-07T00:52:49.180Z,94.92
2023-04-07T00:53:49.155Z,95.23
2023-04-07T00:54:49.143Z,94.92
2023-04-07T00:55:49.129Z,94.83
2023-04-07T00:56:49.117Z,94.66
2023-04-07T00:57:49.107Z,95.13
2023-04-07T00:58:49.090Z,94.83
2023-04-07T00:59:49.078Z,94.51
2023-04-07T01:00:49.068Z,94.41
2023-04-07T01:01:49.129Z,94.83
2023-04-07T01:02:49.297Z,94.51
2023-04-07T01:03:49.226Z,94.72
2023-04-07T01:04:49.117Z,94.62
2023-04-07T01:05:48.995Z,94.41
2023-04-07T01:06:48.989Z,94.72
2023-04-07T01:07:48.969Z,94.72
2023-04-07T01:08:48.959Z,94.31
2023-04-07T01:09:48.944Z,94.62
2023-04-07T01:10:48.935Z,94.58
2023-04-07T01:11:48.920Z,94.37
2023-04-07T01:12:48.908Z,94.58
2023-04-07T01:13:48.891Z,94.26
2023-04-07T01:14:48.879Z,94.37
2023-04-07T01:15:48.921Z,94.37
2023-04-07T01:16:48.868Z,94.26
2023-04-07T01:17:48.875Z,94.47
2023-04-07T01:18:48.852Z,94.16
2023-04-07T01:19:48.819Z,94.26
2023-04-07T01:20:48.802Z,94.11
2023-04-07T01:21:48.789Z,94.37
2023-04-07T01:22:48.775Z,94.47
2023-04-07T01:23:48.761Z,94.41
2023-04-07T01:24:48.751Z,94.47
2023-04-07T01:25:48.738Z,94.51
2023-04-07T01:26:48.729Z,94.62
2023-04-07T01:27:48.708Z,94.72
2023-04-07T01:29:48.682Z,94.78
2023-04-07T01:30:48.677Z,94.51
2023-04-07T01:31:48.722Z,95.03
2023-04-07T01:32:48.665Z,94.98
2023-04-07T01:33:48.643Z,94.83
2023-04-07T01:34:48.644Z,95.03
2023-04-07T01:35:48.627Z,95.19
2023-04-07T01:36:48.606Z,95.13
2023-04-07T01:37:48.590Z,95.03
2023-04-07T01:38:48.570Z,95.23
2023-04-07T01:39:48.558Z,95.23
2023-04-07T01:40:48.559Z,94.92
2023-04-07T01:41:48.530Z,94.88
2023-04-07T01:42:48.519Z,95.13
2023-04-07T01:43:48.517Z,95.30
2023-04-07T01:44:48.495Z,95.09
2023-04-07T01:45:48.482Z,95.30
2023-04-07T01:46:48.540Z,95.19
2023-04-07T01:47:48.483Z,95.09
2023-04-07T01:48:48.442Z,95.09
2023-04-07T01:49:48.428Z,94.94
2023-04-07T01:50:48.443Z,94.98
2023-04-07T01:51:48.406Z,94.37
2023-04-07T01:52:48.393Z,94.78
2023-04-07T01:53:48.381Z,94.58
2023-04-07T01:54:48.369Z,94.78
2023-04-07T01:55:48.351Z,94.88
2023-04-07T01:56:48.341Z,94.98
2023-04-07T01:57:48.325Z,94.98
2023-04-07T01:58:48.315Z,94.98
2023-04-07T01:59:48.299Z,94.68
2023-04-07T02:00:48.313Z,94.68
2023-04-07T02:01:48.507Z,94.98
2023-04-07T02:02:48.412Z,94.58
2023-04-07T02:03:48.431Z,95.09
2023-04-07T02:04:48.237Z,94.98
2023-04-07T02:05:48.224Z,94.88
2023-04-07T02:06:48.237Z,94.98
2023-04-07T02:07:48.202Z,95.19
2023-04-07T02:08:48.191Z,95.09
2023-04-07T02:09:48.191Z,94.98
2023-04-07T02:10:48.159Z,94.98
2023-04-07T02:11:48.146Z,95.09
2023-04-07T02:12:48.137Z,94.68
2023-04-07T02:13:48.121Z,94.73
2023-04-07T02:14:48.108Z,94.94
2023-04-07T02:16:49.051Z,94.22
2023-04-07T02:17:48.125Z,94.73
2023-04-07T02:18:48.058Z,94.58
2023-04-07T02:19:48.042Z,94.47
2023-04-07T02:20:48.035Z,94.47
2023-04-07T02:21:48.015Z,94.16
2023-04-07T02:22:48.029Z,94.47
2023-04-07T02:23:48.003Z,94.32
2023-04-07T02:24:47.992Z,94.63
2023-04-07T02:25:47.965Z,94.43
2023-04-07T02:26:47.965Z,94.12
2023-04-07T02:27:47.947Z,94.32
2023-04-07T02:28:47.925Z,94.32
2023-04-07T02:29:47.918Z,94.26
2023-04-07T02:30:47.901Z,94.26
2023-04-07T02:31:47.942Z,94.37
2023-04-07T02:32:47.927Z,94.68
2023-04-07T02:33:47.861Z,94.58
2023-04-07T02:34:47.852Z,94.37
2023-04-07T02:35:47.833Z,94.88
2023-04-07T02:36:47.866Z,94.94
2023-04-07T02:37:47.808Z,94.53
2023-04-07T02:38:47.827Z,94.53
2023-04-07T02:39:47.786Z,94.53
2023-04-07T02:40:47.770Z,94.53
2023-04-07T02:41:47.757Z,94.53
2023-04-07T02:42:47.743Z,94.32
2023-04-07T02:43:47.736Z,94.68
2023-04-07T02:44:47.718Z,94.58
2023-04-07T02:45:47.747Z,94.78
2023-04-07T02:46:47.693Z,94.98
2023-04-07T02:47:47.780Z,94.78
2023-04-07T02:48:47.667Z,95.30
2023-04-07T02:49:47.652Z,94.88
2023-04-07T02:50:47.643Z,95.25
2023-04-07T02:51:47.624Z,94.68
2023-04-07T02:52:47.654Z,94.47
2023-04-07T02:53:47.597Z,94.88
2023-04-07T02:54:47.612Z,94.78
2023-04-07T02:55:47.587Z,94.63
2023-04-07T02:56:47.563Z,94.88
2023-04-07T02:57:47.552Z,94.88
2023-04-07T02:58:47.555Z,94.68
2023-04-07T02:59:47.521Z,94.58
2023-04-07T03:00:49.064Z,95.05
2023-04-07T03:01:47.647Z,94.84
2023-04-07T03:02:47.733Z,94.94
2023-04-07T03:03:47.609Z,94.94
2023-04-07T03:04:47.457Z,95.00
2023-04-07T03:05:47.439Z,94.79
2023-04-07T03:06:47.433Z,94.79
2023-04-07T03:07:47.415Z,94.79
2023-04-07T03:08:47.403Z,94.48
2023-04-07T03:09:47.389Z,94.28
2023-04-07T03:10:47.405Z,94.28
2023-04-07T03:11:47.363Z,94.24
2023-04-07T03:12:47.363Z,94.14
2023-04-07T03:13:47.337Z,94.07
2023-04-07T03:14:47.325Z,94.07
2023-04-07T03:15:47.328Z,93.97
2023-04-07T03:16:47.374Z,93.97
2023-04-07T03:17:47.349Z,94.07
2023-04-07T03:18:47.278Z,94.18
2023-04-07T03:19:47.267Z,94.28
2023-04-07T03:20:47.248Z,94.28
2023-04-07T03:21:47.270Z,94.24
2023-04-07T03:22:47.241Z,94.14
2023-04-07T03:23:47.208Z,94.14
2023-04-07T03:24:47.197Z,93.82
2023-04-07T03:25:48.239Z,93.82
2023-04-07T03:26:47.220Z,94.03
2023-04-07T03:27:47.155Z,94.14
2023-04-07T03:28:47.157Z,94.03
2023-04-07T03:29:47.133Z,94.14
2023-04-07T03:30:47.176Z,93.62
2023-04-07T03:31:47.110Z,93.62
2023-04-07T03:32:47.121Z,93.62
2023-04-07T03:33:47.085Z,93.62
2023-04-07T03:34:47.069Z,93.31
2023-04-07T03:35:47.087Z,93.82
2023-04-07T03:36:47.043Z,93.52
2023-04-07T03:37:47.054Z,93.52
2023-04-07T03:38:47.024Z,93.56
2023-04-07T03:39:47.010Z,93.46
2023-04-07T03:40:47.000Z,93.67
2023-04-07T03:41:46.979Z,93.97
2023-04-07T03:42:46.998Z,93.67
2023-04-07T03:43:46.952Z,93.87
2023-04-07T03:44:46.940Z,94.07
2023-04-07T03:45:46.931Z,93.56
2023-04-07T03:46:46.928Z,93.81
2023-04-07T03:47:46.937Z,93.67
2023-04-07T03:48:46.888Z,93.97
2023-04-07T03:49:46.877Z,93.87
2023-04-07T03:50:46.885Z,94.07
2023-04-07T03:51:46.848Z,93.77
2023-04-07T03:52:46.837Z,93.71
2023-04-07T03:53:46.822Z,94.12
2023-04-07T03:54:46.810Z,94.22
2023-04-07T03:55:46.804Z,94.32
2023-04-07T03:56:46.792Z,94.32
2023-04-07T03:57:46.770Z,94.22
2023-04-07T03:58:46.791Z,94.43
2023-04-07T03:59:46.746Z,94.48
2023-04-07T04:00:46.733Z,94.12
2023-04-07T04:01:46.744Z,94.32
2023-04-07T04:02:46.735Z,94.48
2023-04-07T04:03:46.914Z,94.32
2023-04-07T04:04:46.706Z,94.48
2023-04-07T04:05:46.666Z,94.59
2023-04-07T04:06:46.659Z,94.07
2023-04-07T04:07:46.654Z,94.39
2023-04-07T04:08:46.628Z,93.97
2023-04-07T04:09:46.620Z,94.18
2023-04-07T04:10:46.612Z,94.28
2023-04-07T04:11:46.591Z,94.03
2023-04-07T04:12:46.581Z,93.82
2023-04-07T04:13:46.566Z,93.82
2023-04-07T04:14:46.591Z,93.72
2023-04-07T04:15:46.684Z,93.05
2023-04-07T04:16:46.535Z,93.56
2023-04-07T04:17:46.561Z,93.56
2023-04-07T04:18:46.501Z,93.87
2023-04-07T04:19:46.488Z,93.82
2023-04-07T04:20:46.484Z,93.82
2023-04-07T04:21:46.511Z,93.62
2023-04-07T04:22:46.471Z,94.03
2023-04-07T04:23:46.434Z,94.14
2023-04-07T04:24:46.423Z,94.03
2023-04-07T04:25:46.413Z,94.14
2023-04-07T04:26:46.406Z,94.29
2023-04-07T04:27:46.402Z,93.99
2023-04-07T04:28:46.400Z,93.99
2023-04-07T04:29:46.359Z,93.58
2023-04-07T04:30:46.375Z,93.58
2023-04-07T04:31:46.386Z,93.68
2023-04-07T04:32:46.351Z,93.48
2023-04-07T04:33:46.320Z,93.21
2023-04-07T04:34:46.294Z,93.52
2023-04-07T04:35:46.286Z,93.21
2023-04-07T04:36:46.302Z,93.01
2023-04-07T04:37:46.257Z,93.42
2023-04-07T04:38:46.254Z,93.42
2023-04-07T04:39:46.232Z,93.52
2023-04-07T04:40:46.219Z,93.42
2023-04-07T04:41:46.209Z,93.62
2023-04-07T04:42:46.194Z,93.52
2023-04-07T04:43:47.868Z,93.82
2023-04-07T04:44:46.172Z,93.72
2023-04-07T04:45:46.166Z,93.52
2023-04-07T04:46:46.202Z,93.42
2023-04-07T04:47:46.171Z,93.62
2023-04-07T04:48:46.120Z,93.21
2023-04-07T04:49:46.111Z,93.46
2023-04-07T04:50:46.094Z,93.62
2023-04-07T04:51:46.084Z,93.42
2023-04-07T04:52:46.074Z,93.72
2023-04-07T04:53:46.057Z,93.82
2023-04-07T04:54:46.045Z,93.46
2023-04-07T04:55:46.033Z,93.67
2023-04-07T04:56:46.023Z,93.67
2023-04-07T04:57:46.010Z,93.87
2023-04-07T04:58:46.034Z,94.28
2023-04-07T04:59:45.981Z,94.28
2023-04-07T05:00:45.989Z,93.93
2023-04-07T05:01:45.988Z,93.67
2023-04-07T05:02:46.155Z,93.93
2023-04-07T05:03:46.009Z,93.82
2023-04-07T05:04:46.099Z,93.62
2023-04-07T05:05:45.901Z,93.67
2023-04-07T05:06:45.894Z,93.97
2023-04-07T05:07:45.875Z,93.97
2023-04-07T05:08:45.861Z,93.93
2023-04-07T05:09:45.852Z,93.82
2023-04-07T05:10:46.678Z,93.93
2023-04-07T05:11:45.828Z,93.82
2023-04-07T05:12:45.809Z,93.89
2023-04-07T05:13:45.797Z,93.58
2023-04-07T05:14:45.783Z,93.27
2023-04-07T05:15:45.776Z,93.37
2023-04-07T05:16:45.768Z,93.58
2023-04-07T05:17:45.771Z,93.58
2023-04-07T05:18:45.761Z,92.96
2023-04-07T05:19:45.724Z,93.33
2023-04-07T05:20:45.723Z,93.12
2023-04-07T05:21:45.697Z,92.76
2023-04-07T05:22:45.682Z,92.29
2023-04-07T05:23:45.668Z,93.42
2023-04-07T05:24:45.668Z,93.31
2023-04-07T05:25:45.648Z,93.62
2023-04-07T05:26:45.635Z,93.52
2023-04-07T05:27:45.619Z,94.03
2023-04-07T05:28:45.604Z,94.03
2023-04-07T05:29:45.600Z,93.89
2023-04-07T05:30:45.580Z,93.62
2023-04-07T05:31:45.617Z,93.72
2023-04-07T05:32:45.618Z,93.82
2023-04-07T05:33:45.544Z,94.14
2023-04-07T05:34:45.628Z,94.44
2023-04-07T05:35:45.656Z,94.75
2023-04-07T05:36:45.508Z,94.75
2023-04-07T05:37:45.498Z,94.14
2023-04-07T05:38:45.481Z,94.44
2023-04-07T05:39:45.469Z,94.24
2023-04-07T05:40:45.452Z,94.24
2023-04-07T05:41:45.447Z,93.72
2023-04-07T05:42:45.436Z,94.65
2023-04-07T05:43:45.425Z,94.54
2023-04-07T05:44:45.402Z,94.24
2023-04-07T05:45:45.431Z,94.65
2023-04-07T05:46:45.379Z,94.34
2023-04-07T05:47:45.374Z,94.54
2023-04-07T05:48:45.354Z,94.65
2023-04-07T05:49:45.340Z,94.95
2023-04-07T05:50:45.360Z,94.85
2023-04-07T05:51:46.736Z,94.75
2023-04-07T05:52:45.307Z,94.91
2023-04-07T05:53:45.286Z,95.01
2023-04-07T05:54:45.281Z,94.70
2023-04-07T05:55:45.263Z,94.09
2023-04-07T05:56:45.250Z,93.89
2023-04-07T05:57:45.239Z,93.48
2023-04-07T05:58:45.229Z,94.14
2023-04-07T05:59:45.212Z,94.14
2023-04-07T06:00:45.210Z,94.24
2023-04-07T06:01:45.236Z,94.19
2023-04-07T06:02:45.428Z,94.03
2023-04-07T06:03:45.261Z,94.24
2023-04-07T06:04:45.150Z,94.40
2023-04-07T06:05:45.288Z,94.50
2023-04-07T06:06:45.145Z,94.29
2023-04-07T06:07:45.136Z,94.44
2023-04-07T06:08:45.096Z,94.50
2023-04-07T06:09:45.083Z,94.09
2023-04-07T06:10:45.071Z,94.34
2023-04-07T06:11:45.067Z,94.40
2023-04-07T06:12:45.061Z,94.03
2023-04-07T06:13:45.037Z,94.50
2023-04-07T06:14:45.019Z,94.61
2023-04-07T06:15:45.045Z,94.65
2023-04-07T06:16:45.089Z,94.34
2023-04-07T06:17:44.994Z,94.65
2023-04-07T06:18:44.973Z,94.90
2023-04-07T06:19:44.954Z,95.26
2023-04-07T06:20:44.943Z,95.37
2023-04-07T06:21:44.930Z,95.52
2023-04-07T06:22:44.960Z,95.78
2023-04-07T06:23:44.905Z,95.57
2023-04-07T06:24:44.891Z,95.67
2023-04-07T06:25:44.878Z,95.37
2023-04-07T06:26:44.874Z,95.53
2023-04-07T06:27:44.861Z,95.01
2023-04-07T06:28:44.845Z,94.91
2023-04-07T06:29:44.829Z,94.24
2023-04-07T06:30:44.874Z,94.65
2023-04-07T06:31:44.813Z,94.85
2023-04-07T06:32:44.823Z,95.16
2023-04-07T06:33:44.778Z,95.16
2023-04-07T06:34:44.765Z,95.22
2023-04-07T06:35:44.754Z,95.16
2023-04-07T06:36:46.008Z,94.85
2023-04-07T06:37:44.730Z,95.57
2023-04-07T06:38:44.742Z,95.37
2023-04-07T06:39:44.704Z,95.22
2023-04-07T06:40:44.688Z,95.22
2023-04-07T06:41:44.681Z,95.12
2023-04-07T06:42:44.661Z,95.22
2023-04-07T06:43:44.686Z,95.07
2023-04-07T06:44:44.638Z,94.40
2023-04-07T06:45:44.669Z,94.50
2023-04-07T06:46:44.696Z,94.76
2023-04-07T06:47:44.657Z,94.46
2023-04-07T06:48:44.586Z,94.97
2023-04-07T06:49:44.577Z,94.36
2023-04-07T06:50:44.563Z,94.56
2023-04-07T06:51:44.553Z,94.62
2023-04-07T06:52:44.537Z,94.51
2023-04-07T06:53:44.527Z,94.47
2023-04-07T06:54:44.810Z,94.58
2023-04-07T06:55:44.502Z,94.47
2023-04-07T06:56:44.489Z,94.26
2023-04-07T06:57:44.475Z,94.26
2023-04-07T06:58:44.463Z,93.81
2023-04-07T06:59:44.452Z,93.51
2023-04-07T07:00:44.435Z,93.20
2023-04-07T07:01:44.483Z,93.20
2023-04-07T07:02:44.632Z,92.99
2023-04-07T07:03:44.478Z,92.89
2023-04-07T07:04:44.384Z,92.69
2023-04-07T07:05:44.376Z,92.79
2023-04-07T07:06:44.360Z,93.20
2023-04-07T07:07:44.549Z,93.40
2023-04-07T07:08:44.354Z,93.51
2023-04-07T07:09:44.333Z,93.56
2023-04-07T07:10:44.333Z,93.26
2023-04-07T07:11:44.299Z,93.15
2023-04-07T07:12:44.287Z,92.85
2023-04-07T07:13:44.279Z,92.60
2023-04-07T07:14:44.258Z,92.70
2023-04-07T07:15:44.254Z,92.50
2023-04-07T07:16:44.241Z,91.99
2023-04-07T07:17:44.247Z,91.99
2023-04-07T07:18:44.224Z,91.99
2023-04-07T07:19:44.196Z,91.54
2023-04-07T07:20:44.183Z,91.33
2023-04-07T07:21:44.176Z,91.22
2023-04-07T07:22:44.165Z,91.43
2023-04-07T07:23:44.140Z,91.43
2023-04-07T07:24:44.122Z,91.43
2023-04-07T07:25:44.142Z,90.00
2023-04-07T07:26:44.710Z,90.51
2023-04-07T07:27:44.084Z,90.61
2023-04-07T07:28:44.070Z,90.57
2023-04-07T07:29:44.058Z,90.10
2023-04-07T07:30:44.081Z,89.39
2023-04-07T07:31:44.034Z,89.28
2023-04-07T07:32:44.038Z,90.00
2023-04-07T07:33:44.168Z,90.66
2023-04-07T07:34:43.998Z,90.90
2023-04-07T07:35:43.976Z,91.41
2023-04-07T07:36:43.965Z,91.66
2023-04-07T07:37:43.952Z,92.12
2023-04-07T07:38:43.940Z,92.83
2023-04-07T07:39:43.933Z,92.93
2023-04-07T07:40:43.914Z,93.65
2023-04-07T07:41:43.897Z,93.85
2023-04-07T07:42:43.905Z,93.65
2023-04-07T07:43:43.868Z,93.92
2023-04-07T07:44:43.857Z,94.12
2023-04-07T07:45:43.846Z,94.18
2023-04-07T07:46:43.896Z,93.67
2023-04-07T07:47:43.856Z,93.15
2023-04-07T07:48:43.805Z,93.15
2023-04-07T07:49:43.800Z,92.81
2023-04-07T07:50:43.778Z,92.34
2023-04-07T07:51:43.773Z,92.50
2023-04-07T07:52:43.754Z,92.50
2023-04-07T07:53:43.762Z,92.29
2023-04-07T07:54:43.723Z,92.40
2023-04-07T07:55:43.713Z,91.94
2023-04-07T07:56:43.702Z,91.58
2023-04-07T07:57:43.686Z,91.17
2023-04-07T07:58:43.696Z,91.68
2023-04-07T07:59:43.657Z,91.52
2023-04-07T08:00:43.647Z,91.99
2023-04-07T08:01:43.670Z,92.19
2023-04-07T08:02:43.704Z,91.68
2023-04-07T08:04:43.619Z,92.40
2023-04-07T08:05:43.581Z,92.19
2023-04-07T08:06:43.562Z,91.78
2023-04-07T08:07:43.550Z,91.41
2023-04-07T08:08:43.536Z,91.62
2023-04-07T08:09:43.525Z,91.62
2023-04-07T08:10:43.511Z,91.99
2023-04-07T08:11:43.498Z,91.93
2023-04-07T08:12:43.486Z,92.09
2023-04-07T08:13:43.472Z,91.31
2023-04-07T08:14:43.486Z,92.13
2023-04-07T08:15:43.533Z,91.52
2023-04-07T08:16:43.497Z,92.03
2023-04-07T08:17:43.448Z,92.03
2023-04-07T08:18:43.407Z,92.54
2023-04-07T08:19:43.393Z,91.99
2023-04-07T08:20:43.381Z,91.78
2023-04-07T08:21:43.366Z,91.37
2023-04-07T08:22:43.352Z,91.17
2023-04-07T08:23:43.345Z,91.21
2023-04-07T08:24:43.329Z,91.21
2023-04-07T08:25:43.311Z,91.11
2023-04-07T08:26:43.300Z,91.00
2023-04-07T08:27:43.287Z,91.41
2023-04-07T08:28:43.272Z,91.31
2023-04-07T08:29:43.264Z,91.52
2023-04-07T08:30:43.273Z,91.17
2023-04-07T08:31:43.295Z,91.74
2023-04-07T08:32:43.252Z,91.64
2023-04-07T08:33:43.208Z,90.88
2023-04-07T08:34:43.201Z,89.96
2023-04-07T08:35:43.183Z,89.55
2023-04-07T08:36:44.139Z,89.96
2023-04-07T08:37:43.161Z,89.45
2023-04-07T08:38:43.143Z,89.04
2023-04-07T08:39:43.129Z,89.34
2023-04-07T08:40:43.117Z,89.04
2023-04-07T08:41:43.129Z,88.83
2023-04-07T08:42:43.093Z,89.14
2023-04-07T08:43:43.082Z,89.86
2023-04-07T08:44:43.062Z,89.04
2023-04-07T08:45:43.052Z,88.77
2023-04-07T08:46:43.098Z,89.28
2023-04-07T08:47:43.114Z,89.59
2023-04-07T08:48:43.014Z,90.00
2023-04-07T08:49:43.025Z,90.41
2023-04-07T08:50:42.987Z,90.31
2023-04-07T08:51:42.978Z,89.90
2023-04-07T08:52:42.968Z,89.18
2023-04-07T08:53:42.965Z,89.39
2023-04-07T08:54:42.942Z,89.80
2023-04-07T08:55:42.932Z,90.00
2023-04-07T08:56:42.921Z,90.00
2023-04-07T08:57:42.898Z,89.75
2023-04-07T08:58:42.888Z,89.24
2023-04-07T08:59:42.872Z,88.83
2023-04-07T09:00:42.900Z,88.87
2023-04-07T09:01:42.933Z,88.83
2023-04-07T09:02:42.940Z,89.39
2023-04-07T09:03:42.889Z,89.55
2023-04-07T09:04:42.808Z,88.94
2023-04-07T09:05:42.792Z,88.83
2023-04-07T09:06:42.782Z,88.83
2023-04-07T09:07:42.772Z,88.69
2023-04-07T09:08:42.756Z,87.92
2023-04-07T09:09:42.740Z,88.28
2023-04-07T09:10:42.736Z,86.85
2023-04-07T09:11:42.718Z,87.73
2023-04-07T09:12:42.704Z,88.65
2023-04-07T09:13:42.698Z,88.61
2023-04-07T09:14:42.679Z,88.20
2023-04-07T09:15:42.662Z,87.28
2023-04-07T09:16:42.687Z,87.75
2023-04-07T09:17:42.691Z,87.04
2023-04-07T09:18:42.652Z,84.93
2023-04-07T09:19:42.616Z,85.85
2023-04-07T09:20:42.609Z,86.16
2023-04-07T09:21:42.591Z,86.77
2023-04-07T09:22:42.605Z,86.81
2023-04-07T09:23:42.573Z,85.42
2023-04-07T09:24:42.553Z,86.54
2023-04-07T09:25:42.537Z,86.85
2023-04-07T09:26:42.532Z,87.26
2023-04-07T09:27:42.517Z,87.57
2023-04-07T09:28:42.502Z,87.77
2023-04-07T09:29:42.483Z,87.77
2023-04-07T09:30:42.472Z,89.00
2023-04-07T09:31:42.498Z,88.75
2023-04-07T09:32:42.492Z,88.75
2023-04-07T09:33:42.433Z,87.83
2023-04-07T09:34:42.450Z,87.42
2023-04-07T09:35:42.441Z,88.75
2023-04-07T09:36:42.391Z,89.22
2023-04-07T09:37:42.380Z,87.69
2023-04-07T09:38:42.368Z,87.54
2023-04-07T09:39:42.352Z,87.13
2023-04-07T09:40:42.342Z,87.30
2023-04-07T09:41:42.400Z,84.34
2023-04-07T09:42:42.319Z,84.75
2023-04-07T09:43:42.304Z,85.46
2023-04-07T09:44:42.299Z,85.26
2023-04-07T09:45:42.354Z,85.36
2023-04-07T09:46:42.375Z,82.99
2023-04-07T09:47:42.283Z,85.71
2023-04-07T09:48:42.235Z,87.40
2023-04-07T09:49:42.221Z,86.04
2023-04-07T09:50:42.265Z,85.43
2023-04-07T09:51:42.196Z,84.06
2023-04-07T09:52:42.186Z,84.83
2023-04-07T09:53:42.180Z,82.70
2023-04-07T09:54:42.160Z,83.20
2023-04-07T09:55:42.143Z,83.58
2023-04-07T09:56:42.144Z,83.23
2023-04-07T09:57:42.124Z,84.35
2023-04-07T09:58:42.111Z,81.43
2023-04-07T09:59:42.097Z,84.08
2023-04-07T10:00:42.089Z,80.59
2023-04-07T10:01:42.214Z,82.84
2023-04-07T10:02:42.170Z,83.55
2023-04-07T10:03:42.109Z,85.38
2023-04-07T10:04:42.034Z,85.90
2023-04-07T10:05:42.020Z,85.18
2023-04-07T10:06:42.052Z,86.20
2023-04-07T10:07:42.834Z,86.77
2023-04-07T10:08:41.982Z,83.25
2023-04-07T10:09:41.968Z,82.43
2023-04-07T10:10:41.964Z,81.96
2023-04-07T10:11:41.944Z,83.06
2023-04-07T10:12:41.939Z,83.36
2023-04-07T10:13:41.922Z,86.12
2023-04-07T10:14:41.909Z,86.79
2023-04-07T10:15:41.901Z,85.10
2023-04-07T10:16:41.928Z,86.99
2023-04-07T10:17:41.909Z,86.99
2023-04-07T10:18:41.859Z,86.65
2023-04-07T10:19:41.843Z,86.71
2023-04-07T10:20:41.835Z,86.77
2023-04-07T10:21:41.819Z,87.18
2023-04-07T10:22:41.831Z,85.04
2023-04-07T10:23:41.793Z,84.02
2023-04-07T10:24:41.785Z,83.86
2023-04-07T10:25:41.770Z,83.79
2023-04-07T10:26:41.866Z,84.27
2023-04-07T10:27:41.750Z,84.57
2023-04-07T10:28:41.733Z,84.02
2023-04-07T10:29:41.728Z,85.14
2023-04-07T10:30:41.786Z,82.53
2023-04-07T10:31:41.698Z,83.92
2023-04-07T10:32:41.725Z,84.22
2023-04-07T10:33:41.673Z,81.88
2023-04-07T10:34:41.656Z,83.06
2023-04-07T10:35:41.665Z,83.98
2023-04-07T10:36:41.632Z,82.15
2023-04-07T10:37:41.639Z,81.34
2023-04-07T10:38:41.629Z,82.04
2023-04-07T10:39:41.590Z,82.15
2023-04-07T10:40:41.579Z,83.17
2023-04-07T10:41:41.561Z,83.37
2023-04-07T10:42:41.563Z,82.56
2023-04-07T10:43:41.563Z,82.86
2023-04-07T10:44:41.532Z,82.04
2023-04-07T10:45:41.514Z,81.98
2023-04-07T10:46:41.570Z,80.90
2023-04-07T10:47:41.539Z,82.43
2023-04-07T10:48:41.478Z,82.02
2023-04-07T10:49:41.464Z,81.86
2023-04-07T10:50:41.451Z,82.10
2023-04-07T10:51:41.442Z,83.83
2023-04-07T10:52:41.425Z,84.91
2023-04-07T10:53:41.411Z,84.75
2023-04-07T10:54:41.447Z,84.96
2023-04-07T10:55:41.395Z,84.75
2023-04-07T10:56:41.374Z,83.42
2023-04-07T10:57:41.360Z,84.44
2023-04-07T10:58:41.348Z,84.79
2023-04-07T10:59:41.331Z,86.12
2023-04-07T11:00:41.326Z,86.63
2023-04-07T11:01:41.413Z,87.13
2023-04-07T11:02:41.773Z,87.79
2023-04-07T11:03:41.360Z,86.98
2023-04-07T11:04:41.314Z,87.38
2023-04-07T11:05:41.267Z,87.69
2023-04-07T11:06:41.245Z,86.71
2023-04-07T11:07:41.233Z,87.53
2023-04-07T11:08:41.218Z,87.01
2023-04-07T11:09:41.225Z,87.73
2023-04-07T11:10:41.233Z,88.75
2023-04-07T11:11:41.179Z,88.34
2023-04-07T11:12:41.169Z,89.36
2023-04-07T11:13:41.152Z,89.63
2023-04-07T11:14:41.152Z,89.63
2023-04-07T11:15:41.223Z,89.94
2023-04-07T11:16:41.119Z,90.20
2023-04-07T11:17:41.148Z,89.89
2023-04-07T11:18:41.094Z,89.59
2023-04-07T11:19:41.073Z,89.34
2023-04-07T11:20:41.063Z,88.83
2023-04-07T11:21:41.047Z,89.03
2023-04-07T11:22:41.038Z,87.60
2023-04-07T11:23:41.033Z,88.12
2023-04-07T11:24:41.012Z,88.22
2023-04-07T11:25:40.997Z,87.40
2023-04-07T11:26:41.011Z,86.18
2023-04-07T11:27:40.971Z,86.59
2023-04-07T11:28:40.961Z,86.28
2023-04-07T11:29:40.944Z,86.99
2023-04-07T11:30:40.933Z,85.40
2023-04-07T11:31:40.955Z,87.95
2023-04-07T11:32:40.930Z,88.01
2023-04-07T11:33:40.895Z,87.04
2023-04-07T11:34:40.888Z,87.65
2023-04-07T11:35:40.873Z,87.95
2023-04-07T11:36:40.978Z,87.95
2023-04-07T11:37:40.844Z,87.95
2023-04-07T11:38:40.833Z,88.06
2023-04-07T11:39:40.819Z,88.26
2023-04-07T11:40:40.805Z,88.00
2023-04-07T11:41:40.792Z,88.81
2023-04-07T11:42:40.807Z,88.97
2023-04-07T11:43:40.766Z,89.89
2023-04-07T11:44:40.753Z,89.08
2023-04-07T11:45:40.741Z,88.87
2023-04-07T11:46:40.754Z,89.69
2023-04-07T11:47:40.737Z,89.95
2023-04-07T11:48:40.731Z,90.57
2023-04-07T11:49:40.688Z,89.85
2023-04-07T11:50:40.693Z,88.53
2023-04-07T11:51:40.664Z,88.01
2023-04-07T11:52:40.652Z,89.34
2023-04-07T11:53:40.633Z,89.75
2023-04-07T11:54:40.624Z,90.01
2023-04-07T11:55:40.608Z,89.09
2023-04-07T11:56:40.606Z,88.69
2023-04-07T11:57:40.582Z,87.36
2023-04-07T11:58:40.595Z,87.26
2023-04-07T11:59:40.557Z,86.28
2023-04-07T12:00:40.546Z,88.06
2023-04-07T12:01:40.604Z,88.47
2023-04-07T12:02:40.703Z,88.67
2023-04-07T12:03:40.595Z,88.87
2023-04-07T12:05:40.478Z,89.03
2023-04-07T12:06:40.470Z,88.67
2023-04-07T12:07:40.455Z,88.97
2023-04-07T12:08:40.444Z,89.44
2023-04-07T12:09:40.444Z,89.75
2023-04-07T12:10:40.457Z,89.40
2023-04-07T12:11:40.401Z,88.99
2023-04-07T12:12:40.390Z,88.28
2023-04-07T12:13:40.380Z,88.59
2023-04-07T12:14:40.389Z,87.97
2023-04-07T12:15:40.349Z,87.62
2023-04-07T12:16:40.414Z,86.34
2023-04-07T12:17:40.344Z,86.75
2023-04-07T12:18:40.312Z,87.46
2023-04-07T12:19:40.301Z,88.07
2023-04-07T12:20:40.290Z,88.18
2023-04-07T12:21:40.274Z,87.16
2023-04-07T12:22:40.261Z,85.67
2023-04-07T12:23:40.249Z,86.69
2023-04-07T12:24:40.233Z,87.13
2023-04-07T12:25:40.222Z,88.26
2023-04-07T12:26:40.209Z,89.48
2023-04-07T12:27:43.571Z,88.67
2023-04-07T12:28:40.181Z,90.03
2023-04-07T12:29:40.180Z,90.91
2023-04-07T12:30:40.184Z,91.11
2023-04-07T12:31:40.216Z,90.81
2023-04-07T12:32:40.159Z,90.30
2023-04-07T12:33:40.121Z,90.10
2023-04-07T12:34:40.102Z,90.20
2023-04-07T12:35:40.143Z,90.81
2023-04-07T12:36:40.082Z,91.11
2023-04-07T12:37:40.071Z,90.50
2023-04-07T12:38:40.051Z,91.48
2023-04-07T12:39:40.044Z,91.18
2023-04-07T12:40:40.037Z,90.52
2023-04-07T12:41:40.042Z,88.93
2023-04-07T12:42:40.006Z,88.93
2023-04-07T12:43:39.992Z,89.50
2023-04-07T12:44:39.975Z,89.91
2023-04-07T12:45:39.984Z,89.20
2023-04-07T12:46:39.968Z,89.20
2023-04-07T12:47:40.002Z,87.97
2023-04-07T12:48:39.925Z,87.87
2023-04-07T12:49:39.914Z,88.28
2023-04-07T12:50:39.901Z,88.07
2023-04-07T12:51:40.033Z,88.62
2023-04-07T12:52:39.872Z,88.97
2023-04-07T12:53:39.872Z,89.79
2023-04-07T12:54:39.857Z,89.63
2023-04-07T12:55:39.842Z,90.14
2023-04-07T12:56:39.819Z,90.85